Time;durP1;ratioP1;P1;durP2;ratioP2;P2;SDS_P1;SDS_P2;PMS_P1;PMS_P2;Temp;Humidity;BMP_temperature;BMP_pressure;BME280_temperature;BME280_humidity;BME280_pressure;Samples;Min_cycle;Max_cycle;Signal;HPM_P1;HPM_P2
2023/05/11 00:01:34;;;;;;;5.32;1.45;;;;;;;12.47;100.00;100156.09;4943500;29;20048;-94
2023/05/11 00:04:06;;;;;;;2.15;1.52;;;;;;;12.37;100.00;100158.44;4927857;29;20509;-93
2023/05/11 00:06:48;;;;;;;2.67;1.38;;;;;;;12.35;100.00;100148.84;4943846;29;20059;-92
2023/05/11 00:09:15;;;;;;;3.30;1.73;;;;;;;12.38;100.00;100167.25;4945433;29;20433;-93
2023/05/11 00:11:53;;;;;;;2.05;1.60;;;;;;;12.28;100.00;100151.84;4928648;29;20039;-92
2023/05/11 00:14:25;;;;;;;1.88;1.50;;;;;;;12.09;100.00;100131.78;4949574;29;20058;-91
2023/05/11 00:17:01;;;;;;;1.52;1.27;;;;;;;12.19;100.00;100157.69;4941565;29;20044;-94
2023/05/11 00:19:30;;;;;;;4.35;1.80;;;;;;;12.19;100.00;100165.66;4957226;29;20036;-92
2023/05/11 00:22:02;;;;;;;2.40;1.70;;;;;;;12.15;100.00;100161.44;4958346;29;20054;-92
2023/05/11 00:24:31;;;;;;;5.88;1.80;;;;;;;12.06;100.00;100155.81;4957487;29;20036;-93
2023/05/11 00:27:01;;;;;;;3.08;1.70;;;;;;;11.98;100.00;100156.25;4957720;29;20070;-92
2023/05/11 00:29:28;;;;;;;3.13;2.10;;;;;;;11.96;100.00;100165.25;4957250;29;20047;-93
2023/05/11 00:32:01;;;;;;;4.38;1.80;;;;;;;11.68;100.00;100128.75;4959695;29;20051;-93
2023/05/11 00:34:58;;;;;;;6.78;1.63;;;;;;;11.73;100.00;100142.63;4953366;29;20091;-93
2023/05/11 00:37:26;;;;;;;15.00;2.17;;;;;;;11.84;100.00;100161.47;4962228;29;20119;-93
2023/05/11 00:40:33;;;;;;;4.40;1.60;;;;;;;11.83;100.00;100151.81;4961837;29;20051;-93
2023/05/11 00:43:02;;;;;;;3.22;1.80;;;;;;;11.75;100.00;100141.59;4954950;29;20058;-93
2023/05/11 00:45:47;;;;;;;11.77;1.92;;;;;;;11.81;100.00;100135.09;4958703;29;20047;-94
2023/05/11 00:48:19;;;;;;;5.80;1.60;;;;;;;11.94;100.00;100144.97;4935587;29;20048;-94
2023/05/11 00:50:52;;;;;;;3.65;1.70;;;;;;;11.99;100.00;100155.31;4944677;29;20054;-94
2023/05/11 00:53:30;;;;;;;2.05;1.50;;;;;;;11.64;100.00;100090.09;4947286;29;20044;-94
2023/05/11 00:56:02;;;;;;;4.50;1.75;;;;;;;11.34;100.00;100059.03;4947903;29;20054;-93
2023/05/11 00:58:31;;;;;;;3.10;1.80;;;;;;;11.49;100.00;100082.03;4946218;29;20043;-95
2023/05/11 01:01:04;;;;;;;6.07;1.70;;;;;;;11.54;100.00;100101.19;4948917;29;20055;-94
2023/05/11 01:03:34;;;;;;;4.15;1.60;;;;;;;11.79;100.00;100147.63;4951016;29;20051;-92
2023/05/11 01:06:22;;;;;;;1.52;1.40;;;;;;;11.78;100.00;100151.22;4954248;29;20111;-90
2023/05/11 01:09:26;;;;;;;5.43;1.67;;;;;;;11.86;100.00;100146.31;4954075;29;20433;-92
2023/05/11 01:12:29;;;;;;;1.58;1.20;;;;;;;11.95;100.00;100137.88;4932582;29;20159;-93
2023/05/11 01:15:09;;;;;;;2.72;1.42;;;;;;;12.09;100.00;100148.56;4946366;29;20055;-93
2023/05/11 01:18:33;;;;;;;2.73;1.50;;;;;;;12.22;100.00;100149.56;4949447;29;20035;-92
2023/05/11 01:21:18;;;;;;;3.33;1.48;;;;;;;12.27;100.00;100141.34;4961109;28;20036;-94
2023/05/11 01:24:33;;;;;;;4.03;1.60;;;;;;;12.32;100.00;100138.38;4957962;29;20048;-94
2023/05/11 01:27:22;;;;;;;3.03;1.52;;;;;;;12.40;100.00;100144.13;4911456;29;20076;-93
2023/05/11 01:30:30;;;;;;;1.83;1.42;;;;;;;12.37;100.00;100142.50;4944417;29;20047;-95
2023/05/11 01:33:13;;;;;;;3.50;1.50;;;;;;;12.35;100.00;100146.19;4948307;29;20048;-96
2023/05/11 01:35:48;;;;;;;3.08;1.17;;;;;;;11.98;100.00;100089.03;4949526;29;20450;-95
2023/05/11 01:38:34;;;;;;;4.78;1.85;;;;;;;11.97;100.00;100087.34;4941564;29;20043;-96
2023/05/11 01:41:11;;;;;;;2.50;1.60;;;;;;;11.59;100.00;100050.56;4958573;29;20039;-94
2023/05/11 01:43:41;;;;;;;3.25;1.55;;;;;;;11.86;100.00;100098.56;4997353;23;20107;-93
2023/05/11 01:46:13;;;;;;;2.75;1.55;;;;;;;11.78;100.00;100095.50;4955401;28;20068;-96
2023/05/11 01:48:51;;;;;;;3.10;1.70;;;;;;;11.50;100.00;100045.75;4933279;29;20378;-95
2023/05/11 01:51:35;;;;;;;3.80;1.48;;;;;;;11.92;100.00;100120.31;4928766;29;20064;-93
2023/05/11 01:54:12;;;;;;;2.45;1.60;;;;;;;11.99;100.00;100127.91;4934851;29;20052;-95
2023/05/11 01:56:46;;;;;;;;;;;;;;;12.06;100.00;100147.88;4953831;29;20076;-94
2023/05/11 01:59:16;;;;;;;4.30;1.42;;;;;;;11.64;100.00;100095.41;4955271;29;19942;-95
2023/05/11 02:01:52;;;;;;;2.33;1.60;;;;;;;11.42;100.00;100064.78;4954505;29;20059;-94
2023/05/11 02:04:23;;;;;;;3.03;1.40;;;;;;;11.96;100.00;100150.19;4938710;29;20063;-94
2023/05/11 02:06:55;;;;;;;2.55;1.65;;;;;;;11.93;100.00;100155.66;4936279;29;20054;-92
2023/05/11 02:09:24;;;;;;;1.52;1.42;;;;;;;11.36;100.00;100072.19;4933762;29;20052;-93
2023/05/11 02:11:54;;;;;;;2.13;1.48;;;;;;;11.67;100.00;100141.16;4956398;29;20108;-94
2023/05/11 02:14:27;;;;;;;4.18;1.67;;;;;;;11.23;100.00;100064.06;4950077;29;20116;-93
2023/05/11 02:17:09;;;;;;;5.32;1.83;;;;;;;11.49;100.00;100108.53;4935231;29;20052;-93
2023/05/11 02:19:42;;;;;;;3.58;1.95;;;;;;;11.66;100.00;100131.47;4952090;29;20524;-94
2023/05/11 02:22:11;;;;;;;4.15;1.60;;;;;;;11.58;100.00;100110.72;4955357;29;20067;-95
2023/05/11 02:24:42;;;;;;;3.28;1.80;;;;;;;11.54;100.00;100113.59;4940124;29;20036;-95
2023/05/11 02:27:11;;;;;;;3.20;1.90;;;;;;;11.78;100.00;100162.69;4946457;29;20086;-94
2023/05/11 02:29:41;;;;;;;3.33;1.88;;;;;;;11.70;100.00;100148.09;4942072;29;20052;-96
2023/05/11 02:32:16;;;;;;;2.45;1.80;;;;;;;11.81;100.00;100151.88;4911552;29;20052;-95
2023/05/11 02:35:07;;;;;;;1.88;1.65;;;;;;;11.70;100.00;100143.66;4935731;29;20072;-95
2023/05/11 02:37:44;;;;;;;2.35;1.40;;;;;;;11.79;100.00;100163.53;4956519;28;20067;-94
2023/05/11 02:40:39;;;;;;;2.15;1.55;;;;;;;11.75;100.00;100167.28;4955389;28;20039;-95
2023/05/11 02:43:13;;;;;;;2.30;1.58;;;;;;;11.06;100.00;100049.09;4939783;29;20051;-94
2023/05/11 02:46:01;;;;;;;2.47;1.67;;;;;;;11.67;100.00;100164.16;4940867;29;20128;-95
2023/05/11 02:49:01;;;;;;;4.57;1.65;;;;;;;11.23;100.00;100120.59;4940577;29;20032;-92
2023/05/11 02:51:44;;;;;;;8.25;2.15;;;;;;;11.20;100.00;100144.59;4931659;29;20048;-93
2023/05/11 02:54:14;;;;;;;4.25;1.95;;;;;;;10.92;100.00;100125.81;4928967;29;20064;-93
2023/05/11 02:56:49;;;;;;;2.33;1.80;;;;;;;11.01;100.00;100153.63;4913050;29;20367;-92
2023/05/11 02:59:24;;;;;;;5.18;1.98;;;;;;;10.69;100.00;100112.91;4928398;29;20120;-94
2023/05/11 03:01:54;;;;;;;3.50;1.73;;;;;;;10.71;100.00;100133.06;4927004;29;20074;-93
2023/05/11 03:04:24;;;;;;;4.32;1.70;;;;;;;10.62;100.00;100122.09;4922957;29;20489;-95
2023/05/11 03:06:51;;;;;;;6.23;2.00;;;;;;;10.81;100.00;100162.59;4906163;29;20044;-94
2023/05/11 03:09:20;;;;;;;3.42;2.17;;;;;;;10.71;100.00;100148.09;4903753;29;20474;-96
2023/05/11 03:11:50;;;;;;;2.50;1.70;;;;;;;10.74;100.00;100154.09;4903987;29;20075;-94
2023/05/11 03:14:17;;;;;;;4.93;2.20;;;;;;;10.53;100.00;100126.09;4918591;29;20060;-95
2023/05/11 03:16:46;;;;;;;3.80;2.10;;;;;;;10.36;100.00;100107.56;4920073;29;20073;-95
2023/05/11 03:19:16;;;;;;;4.05;2.03;;;;;;;10.66;100.00;100158.09;4921738;29;20079;-95
2023/05/11 03:21:44;;;;;;;6.28;2.38;;;;;;;10.32;100.00;100100.69;4900233;29;20123;-95
2023/05/11 03:24:21;;;;;;;4.50;2.08;;;;;;;10.59;100.00;100139.00;4934553;29;20055;-95
2023/05/11 03:26:51;;;;;;;3.92;2.15;;;;;;;10.24;100.00;100074.59;4938114;29;20060;-94
2023/05/11 03:29:30;;;;;;;4.05;2.08;;;;;;;10.29;100.00;100063.81;4932357;29;20054;-94
2023/05/11 03:32:04;;;;;;;2.50;1.92;;;;;;;10.87;100.00;100135.78;4916548;29;20460;-95
2023/05/11 03:34:35;;;;;;;2.35;1.80;;;;;;;11.00;100.00;100154.56;4940647;29;20048;-95
2023/05/11 03:37:06;;;;;;;3.17;2.10;;;;;;;11.08;100.00;100160.28;4926517;29;20048;-96
2023/05/11 03:39:46;;;;;;;5.47;2.00;;;;;;;10.96;100.00;100167.09;4909132;29;20046;-94
2023/05/11 03:42:19;;;;;;;2.90;2.10;;;;;;;10.90;100.00;100164.75;4923892;29;20426;-94
2023/05/11 03:45:01;;;;;;;4.78;2.00;;;;;;;10.80;100.00;100155.59;4924889;29;20087;-94
2023/05/11 03:47:34;;;;;;;4.72;1.80;;;;;;;10.73;100.00;100152.38;4927604;29;20048;-94
2023/05/11 03:50:13;;;;;;;4.65;2.40;;;;;;;10.65;100.00;100141.34;4924578;29;20052;-92
2023/05/11 03:52:43;;;;;;;;;;;;;;;10.79;100.00;100167.13;4892135;29;20057;-94
2023/05/11 03:55:25;;;;;;;5.55;2.00;;;;;;;10.79;100.00;100160.03;4920179;29;19919;-93
2023/05/11 03:58:10;;;;;;;4.43;1.95;;;;;;;10.83;100.00;100166.91;4905539;29;20104;-93
2023/05/11 04:00:43;;;;;;;7.65;3.00;;;;;;;10.91;100.00;100166.47;4909726;29;20071;-94
2023/05/11 04:03:12;;;;;;;3.40;2.00;;;;;;;11.01;100.00;100153.63;4925362;29;20147;-92
2023/05/11 04:05:41;;;;;;;2.95;2.05;;;;;;;11.08;100.00;100153.22;4917751;29;20051;-92
2023/05/11 04:08:13;;;;;;;;;;;;;;;11.27;100.00;100162.84;4925232;29;20037;-93
2023/05/11 04:10:54;;;;;;;3.70;1.90;;;;;;;11.38;100.00;100163.09;4923940;29;19923;-92
2023/05/11 04:13:24;;;;;;;3.30;1.67;;;;;;;11.46;100.00;100152.97;4939042;29;20058;-92
2023/05/11 04:16:06;;;;;;;3.92;1.83;;;;;;;11.54;100.00;100164.84;4937799;29;20053;-93
2023/05/11 04:18:35;;;;;;;2.45;1.63;;;;;;;11.57;100.00;100163.81;4923739;29;20109;-92
2023/05/11 04:21:05;;;;;;;4.18;1.80;;;;;;;11.55;100.00;100160.41;4941709;29;20052;-92
2023/05/11 04:23:32;;;;;;;5.68;2.05;;;;;;;11.67;100.00;100166.81;4937025;29;20059;-93
2023/05/11 04:26:05;;;;;;;4.53;1.90;;;;;;;11.60;100.00;100153.06;4931587;29;20480;-93
2023/05/11 04:28:37;;;;;;;3.95;2.10;;;;;;;11.55;100.00;100161.25;4928718;29;20062;-92
2023/05/11 04:31:13;;;;;;;3.97;2.03;;;;;;;11.55;100.00;100163.06;4928514;29;20040;-93
2023/05/11 04:33:50;;;;;;;2.33;2.05;;;;;;;11.59;100.00;100164.59;4936242;29;20044;-92
2023/05/11 04:36:24;;;;;;;;;;;;;;;11.62;100.00;100176.84;4912828;29;20052;-93
2023/05/11 04:38:53;;;;;;;4.80;2.38;;;;;;;11.52;100.00;100153.47;4957614;29;20351;-95
2023/05/11 04:41:23;;;;;;;2.05;1.80;;;;;;;11.60;100.00;100177.78;4916925;29;20075;-94
2023/05/11 04:43:52;;;;;;;;;;;;;;;11.63;100.00;100178.56;4930478;29;20480;-92
2023/05/11 04:46:22;;;;;;;2.67;2.20;;;;;;;11.67;100.00;100182.72;4944230;29;20372;-95
2023/05/11 04:48:59;;;;;;;4.40;1.88;;;;;;;11.45;100.00;100127.38;4928230;29;20074;-94
2023/05/11 04:51:35;;;;;;;8.73;3.13;;;;;;;11.47;100.00;100122.84;4912982;29;20099;-93
2023/05/11 04:54:17;;;;;;;4.97;2.72;;;;;;;11.79;100.00;100177.66;4928137;29;20217;-94
2023/05/11 04:56:44;;;;;;;5.75;2.08;;;;;;;11.61;100.00;100154.78;4907725;29;20048;-95
2023/05/11 04:59:19;;;;;;;4.50;2.53;;;;;;;11.74;100.00;100181.47;4909210;29;20139;-94
2023/05/11 05:01:51;;;;;;;4.93;2.40;;;;;;;11.41;100.00;100147.03;4909699;29;20124;-92
2023/05/11 05:05:18;;;;;;;5.20;2.95;;;;;;;11.61;100.00;100183.94;4912151;29;20422;-93
2023/05/11 05:11:50;;;;;;;5.00;2.65;;;;;;;11.94;100.00;100190.09;4876272;29;20108;-95
2023/05/11 05:14:24;;;;;;;4.55;2.63;;;;;;;12.02;100.00;100188.78;4901889;29;20055;-94
2023/05/11 05:17:00;;;;;;;4.97;2.65;;;;;;;12.05;100.00;100180.66;4918196;29;20227;-95
2023/05/11 05:19:44;;;;;;;5.32;2.95;;;;;;;11.89;100.00;100180.66;4923242;29;20081;-94
2023/05/11 05:22:16;;;;;;;4.88;3.08;;;;;;;11.81;100.00;100190.81;4911015;29;20049;-94
2023/05/11 05:24:47;;;;;;;3.75;2.70;;;;;;;11.77;100.00;100198.13;4929789;29;20036;-94
2023/05/11 05:27:30;;;;;;;4.68;2.95;;;;;;;11.88;100.00;100189.56;4923581;29;20096;-92
2023/05/11 05:30:13;;;;;;;5.03;2.80;;;;;;;11.98;100.00;100190.75;4936848;29;20063;-95
2023/05/11 05:32:43;;;;;;;5.68;3.00;;;;;;;12.01;100.00;100195.03;4913189;29;20056;-94
2023/05/11 05:35:15;;;;;;;4.75;3.20;;;;;;;11.91;100.00;100198.22;4915549;29;20052;-93
2023/05/11 05:37:43;;;;;;;6.22;3.08;;;;;;;11.94;100.00;100210.44;4923492;29;20056;-94
2023/05/11 05:40:18;;;;;;;4.03;2.95;;;;;;;11.92;100.00;100199.06;4922796;29;20040;-94
2023/05/11 05:43:01;;;;;;;5.35;3.35;;;;;;;11.79;100.00;100200.69;4919701;29;20067;-93
2023/05/11 05:46:00;;;;;;;5.25;3.40;;;;;;;11.64;100.00;100191.75;4935052;29;20063;-96
2023/05/11 05:48:43;;;;;;;5.25;3.42;;;;;;;11.67;100.00;100196.84;4934034;29;20052;-94
2023/05/11 05:51:28;;;;;;;5.45;3.70;;;;;;;11.76;100.00;100214.13;4921917;29;20044;-93
2023/05/11 05:54:26;;;;;;;6.22;3.45;;;;;;;11.42;100.00;100165.53;4905153;29;20033;-94
2023/05/11 05:57:07;;;;;;;5.75;4.10;;;;;;;11.55;100.00;100195.72;4907559;29;20052;-93
2023/05/11 05:59:36;;;;;;;9.73;4.30;;;;;;;11.54;100.00;100207.28;4919862;29;20059;-95
2023/05/11 06:02:13;;;;;;;6.90;4.07;;;;;;;11.56;100.00;100213.34;4906792;29;20060;-94
2023/05/11 06:04:41;;;;;;;6.53;4.03;;;;;;;11.46;100.00;100184.78;4921785;29;20040;-94
2023/05/11 06:07:41;;;;;;;6.60;4.45;;;;;;;11.39;100.00;100168.31;4933220;29;20055;-92
2023/05/11 06:10:23;;;;;;;10.82;7.80;;;;;;;11.82;100.00;100216.41;4921682;29;20055;-94
2023/05/11 06:12:55;;;;;;;9.50;4.50;;;;;;;11.86;100.00;100217.97;4937152;29;20080;-94
2023/05/11 06:15:26;;;;;;;10.52;4.18;;;;;;;11.78;100.00;100191.00;4903689;29;20059;-93
2023/05/11 06:18:00;;;;;;;7.70;4.55;;;;;;;11.80;100.00;100189.13;4922295;29;20040;-94
2023/05/11 06:20:27;;;;;;;5.22;4.18;;;;;;;11.80;100.00;100189.13;4937593;29;20052;-94
2023/05/11 06:22:54;;;;;;;6.63;4.30;;;;;;;11.98;100.00;100222.59;4905797;29;20041;-94
2023/05/11 06:25:29;;;;;;;7.05;4.72;;;;;;;12.00;100.00;100201.28;4917940;29;20055;-94
2023/05/11 06:28:06;;;;;;;7.93;4.47;;;;;;;12.04;100.00;100195.72;4904364;29;20058;-94
2023/05/11 06:30:41;;;;;;;14.52;5.47;;;;;;;12.04;100.00;100185.09;4936508;29;20040;-94
2023/05/11 06:33:16;;;;;;;7.25;4.85;;;;;;;12.39;100.00;100222.06;4907539;29;20044;-94
2023/05/11 06:36:06;;;;;;;10.20;4.80;;;;;;;12.34;100.00;100195.78;4935564;29;20037;-93
2023/05/11 06:39:00;;;;;;;6.60;4.22;;;;;;;12.62;100.00;100226.91;4922207;29;20032;-94
2023/05/11 06:42:18;;;;;;;5.20;4.40;;;;;;;12.60;100.00;100226.13;4902524;29;20041;-94
2023/05/11 06:44:54;;;;;;;8.50;4.78;;;;;;;12.35;100.00;100178.03;4899242;29;20049;-94
2023/05/11 06:47:21;;;;;;;13.88;4.78;;;;;;;12.72;100.00;100224.59;4887764;29;20056;-93
2023/05/11 06:49:58;;;;;;;8.23;4.88;;;;;;;12.28;100.00;100146.53;4885642;29;20132;-92
2023/05/11 06:52:26;;;;;;;7.07;4.90;;;;;;;12.76;100.00;100211.00;5249818;23;20055;-89
2023/05/11 06:55:15;;;;;;;6.63;4.40;;;;;;;13.06;100.00;100228.78;5218054;23;21495;-91
2023/05/11 06:57:45;;;;;;;7.93;4.53;;;;;;;13.21;100.00;100201.28;4924960;29;20103;-94
2023/05/11 07:00:50;;;;;;;8.40;4.32;;;;;;;13.57;100.00;100228.28;4945069;29;20054;-93
2023/05/11 07:03:20;;;;;;;8.20;4.80;;;;;;;13.49;100.00;100185.34;4931871;29;20102;-94
2023/05/11 07:05:58;;;;;;;8.00;4.40;;;;;;;13.90;100.00;100227.09;4932192;29;20461;-94
2023/05/11 07:08:32;;;;;;;7.78;4.88;;;;;;;13.42;100.00;100145.91;4948795;29;20044;-94
2023/05/11 07:11:24;;;;;;;7.40;4.70;;;;;;;13.84;100.00;100223.06;4934542;29;20052;-93
2023/05/11 07:14:05;;;;;;;7.90;5.25;;;;;;;13.68;100.00;100228.47;4919592;29;20071;-93
2023/05/11 07:16:52;;;;;;;9.40;5.40;;;;;;;13.63;100.00;100203.97;4947867;29;20047;-93
2023/05/11 07:19:50;;;;;;;8.15;5.65;;;;;;;14.01;100.00;100224.63;4939008;29;20084;-93
2023/05/11 07:22:20;;;;;;;7.30;5.28;;;;;;;14.21;100.00;100229.53;4937448;29;20070;-94
2023/05/11 07:28:23;;;;;;;8.25;5.32;;;;;;;14.58;100.00;100229.81;5260141;23;20078;-93
2023/05/11 07:30:54;;;;;;;6.15;5.20;;;;;;;14.77;100.00;100225.00;4978801;28;20057;-92
2023/05/11 07:33:44;;;;;;;8.95;6.78;;;;;;;14.91;100.00;100226.72;4978174;28;20050;-91
2023/05/11 07:36:31;;;;;;;8.48;6.38;;;;;;;14.84;100.00;100206.75;4976573;28;20082;-94
2023/05/11 07:39:09;;;;;;;9.10;7.00;;;;;;;14.98;100.00;100228.00;4993180;28;20059;-93
2023/05/11 07:41:43;;;;;;;7.40;5.90;;;;;;;15.01;100.00;100226.00;4983138;28;20099;-93
2023/05/11 07:44:20;;;;;;;9.60;6.18;;;;;;;15.07;100.00;100228.25;4967489;28;20046;-93
2023/05/11 07:46:57;;;;;;;7.60;6.80;;;;;;;15.19;100.00;100231.88;4966912;28;20063;-93
2023/05/11 07:49:36;;;;;;;9.07;6.57;;;;;;;15.35;100.00;100231.69;5000385;28;20061;-92
2023/05/11 07:52:25;;;;;;;9.95;7.18;;;;;;;15.40;100.00;100235.75;4987539;28;20058;-93
2023/05/11 07:55:01;;;;;;;8.40;6.15;;;;;;;15.47;100.00;100241.50;5001225;28;20038;-94
2023/05/11 07:57:36;;;;;;;9.95;8.18;;;;;;;15.47;100.00;100224.63;4999799;28;20042;-93
2023/05/11 08:00:11;;;;;;;11.25;8.63;;;;;;;15.30;100.00;100231.13;4998067;28;20058;-93
2023/05/11 08:02:41;;;;;;;9.88;8.73;;;;;;;15.30;100.00;100229.31;4978494;28;20050;-93
2023/05/11 08:05:26;;;;;;;13.20;8.57;;;;;;;15.39;100.00;100227.84;4970104;28;20049;-94
2023/05/11 08:07:56;;;;;;;10.30;8.97;;;;;;;15.47;100.00;100219.28;4967676;28;20078;-93
2023/05/11 08:10:32;;;;;;;12.50;8.23;;;;;;;15.49;100.00;100228.91;4964216;28;20082;-93
2023/05/11 08:13:17;;;;;;;11.38;9.18;;;;;;;15.30;100.00;100228.47;4958600;28;20047;-93
2023/05/11 08:15:47;;;;;;;11.00;8.57;;;;;;;15.46;100.00;100231.78;4971969;28;20081;-94
2023/05/11 08:18:30;;;;;;;13.55;9.52;;;;;;;15.44;100.00;100210.53;4969847;29;20047;-94
2023/05/11 08:21:31;;;;;;;13.13;9.00;;;;;;;15.62;100.00;100221.78;4941410;29;20071;-93
2023/05/11 08:24:19;;;;;;;11.75;9.30;;;;;;;15.81;100.00;100225.81;4971967;29;20087;-92
2023/05/11 08:26:53;;;;;;;12.30;9.65;;;;;;;15.96;100.00;100222.03;4951851;29;20233;-92
2023/05/11 08:30:25;;;;;;;11.73;9.20;;;;;;;16.13;100.00;100222.53;4969691;28;20043;-93
2023/05/11 08:33:08;;;;;;;10.23;8.77;;;;;;;16.23;100.00;100225.38;4952683;28;20183;-93
2023/05/11 08:35:58;;;;;;;9.98;8.32;;;;;;;16.17;100.00;100220.50;4957249;29;20048;-93
2023/05/11 08:38:58;;;;;;;8.98;8.02;;;;;;;16.23;100.00;100235.22;4947592;29;20043;-93
2023/05/11 08:41:31;;;;;;;10.35;9.25;;;;;;;15.85;100.00;100200.59;4942642;29;20123;-91
2023/05/11 08:44:28;;;;;;;9.93;8.80;;;;;;;15.77;100.00;100219.84;4959629;29;20112;-92
2023/05/11 08:47:01;;;;;;;11.20;8.35;;;;;;;15.74;100.00;100214.72;4946687;29;20055;-90
2023/05/11 08:49:52;;;;;;;11.52;8.80;;;;;;;15.87;100.00;100217.38;4933914;29;20103;-93
2023/05/11 08:52:23;;;;;;;12.52;8.43;;;;;;;15.90;100.00;100214.50;4916113;29;20116;-92
2023/05/11 08:55:09;;;;;;;10.35;8.65;;;;;;;15.98;100.00;100231.66;4899326;29;20045;-93
2023/05/11 08:57:52;;;;;;;10.70;8.30;;;;;;;15.98;100.00;100226.31;4898104;29;20048;-93
2023/05/11 09:00:38;;;;;;;9.93;8.35;;;;;;;15.75;100.00;100181.72;4918560;29;20049;-91
2023/05/11 09:03:48;;;;;;;9.88;8.82;;;;;;;16.07;100.00;100225.63;4909545;29;20056;-92
2023/05/11 09:06:38;;;;;;;10.10;8.25;;;;;;;16.02;100.00;100219.81;4922413;29;20056;-91
2023/05/11 09:09:22;;;;;;;13.23;10.60;;;;;;;15.88;100.00;100235.09;4925392;29;20044;-91
2023/05/11 09:11:54;;;;;;;11.93;9.02;;;;;;;15.54;100.00;100234.78;4907844;29;20100;-90
2023/05/11 09:14:51;;;;;;;10.65;8.85;;;;;;;15.28;100.00;100236.56;5083808;27;2015317;-91
2023/05/11 09:17:28;;;;;;;10.32;8.52;;;;;;;15.23;100.00;100214.72;5100300;28;20058;-92
2023/05/11 09:20:06;;;;;;;11.60;9.02;;;;;;;15.57;100.00;100231.09;5127417;28;20053;-93
2023/05/11 09:22:47;;;;;;;9.65;8.65;;;;;;;15.80;100.00;100232.97;5121034;28;20082;-91
2023/05/11 09:25:22;;;;;;;11.70;8.25;;;;;;;15.94;100.00;100215.94;5128361;28;20063;-91
2023/05/11 09:28:02;;;;;;;11.50;8.10;;;;;;;16.13;100.00;100227.03;5109456;28;20135;-93
2023/05/11 09:30:43;;;;;;;13.35;8.43;;;;;;;16.21;100.00;100224.66;5107030;28;20044;-91
2023/05/11 09:33:31;;;;;;;12.18;8.35;;;;;;;16.36;100.00;100231.56;5085569;28;20036;-93
2023/05/11 09:36:33;;;;;;;9.82;8.20;;;;;;;16.35;100.00;100221.84;5114047;28;20051;-93
2023/05/11 09:39:33;;;;;;;10.30;7.82;;;;;;;16.35;99.00;100221.84;5106559;28;20057;-92
2023/05/11 09:42:46;;;;;;;12.00;8.07;;;;;;;16.24;100.00;100215.53;5120342;28;20070;-92
2023/05/11 09:45:45;;;;;;;14.60;8.05;;;;;;;16.34;100.00;100225.47;5111802;28;20028;-93
2023/05/11 09:52:14;;;;;;;11.57;8.63;;;;;;;16.34;100.00;100225.47;5124410;28;20105;-92
2023/05/11 09:54:52;;;;;;;12.73;8.15;;;;;;;16.25;100.00;100203.91;5107724;28;20052;-91
2023/05/11 09:57:36;;;;;;;9.30;8.32;;;;;;;16.41;100.00;100218.69;5109474;28;20098;-93
2023/05/11 10:00:18;;;;;;;;;;;;;;;16.22;100.00;100226.34;5083042;28;20133;-92
2023/05/11 10:03:07;;;;;;;10.88;7.50;;;;;;;15.77;100.00;100223.34;5124699;28;19916;-92
2023/05/11 10:05:58;;;;;;;9.55;7.95;;;;;;;15.74;100.00;100218.22;5121884;28;20044;-92
2023/05/11 10:08:49;;;;;;;9.43;7.15;;;;;;;15.99;100.00;100219.16;5106608;28;20046;-92
2023/05/11 10:11:39;;;;;;;9.25;7.00;;;;;;;15.89;100.00;100210.97;5092154;28;20337;-92
2023/05/11 10:14:12;;;;;;;;;;;;;;;15.93;100.00;100220.44;5109656;28;20455;-92
2023/05/11 10:17:15;;;;;;;13.68;7.57;;;;;;;16.13;100.00;100213.66;5120835;28;19916;-91
2023/05/11 10:19:52;;;;;;;11.15;8.05;;;;;;;16.34;100.00;100228.13;5114278;28;20054;-92
2023/05/11 10:22:25;;;;;;;10.38;7.55;;;;;;;16.48;99.66;100219.09;5124243;28;20069;-92
2023/05/11 10:24:56;;;;;;;10.27;8.18;;;;;;;16.59;97.80;100215.63;5096030;28;20048;-92
2023/05/11 10:27:37;;;;;;;9.88;7.80;;;;;;;16.50;97.72;100211.81;5089983;28;20390;-93
2023/05/11 10:30:24;;;;;;;10.80;8.20;;;;;;;16.53;98.57;100219.59;5091924;28;20055;-94
2023/05/11 10:32:57;;;;;;;15.32;10.05;;;;;;;16.19;100.00;100197.19;5089275;28;20425;-92
2023/05/11 10:35:43;;;;;;;9.75;8.55;;;;;;;15.88;100.00;100192.38;5065501;28;20127;-92
2023/05/11 10:38:24;;;;;;;10.48;7.70;;;;;;;16.22;100.00;100218.31;5086803;28;20052;-93
2023/05/11 10:41:25;;;;;;;12.63;9.25;;;;;;;16.20;100.00;100164.19;5091615;28;20076;-92
2023/05/11 10:44:39;;;;;;;10.40;8.77;;;;;;;16.19;100.00;100213.22;5104999;28;20095;-91
2023/05/11 10:47:45;;;;;;;11.43;8.30;;;;;;;15.79;100.00;100196.56;5104266;28;20048;-91
2023/05/11 10:50:35;;;;;;;13.25;8.10;;;;;;;15.83;100.00;100213.22;5087673;28;20044;-92
2023/05/11 10:53:24;;;;;;;10.75;7.53;;;;;;;15.88;100.00;100208.41;5107174;28;20361;-92
2023/05/11 10:57:00;;;;;;;11.88;8.43;;;;;;;16.06;100.00;100207.03;4251340;27;25665327;-93
2023/05/11 11:00:10;;;;;;;10.02;7.97;;;;;;;16.16;100.00;100212.59;5118193;28;20043;-92
2023/05/11 11:02:53;;;;;;;9.18;7.55;;;;;;;16.38;100.00;100208.22;5120163;27;20040;-92
2023/05/11 11:05:55;;;;;;;11.60;7.47;;;;;;;16.69;100.00;100197.94;5120143;28;20044;-92
2023/05/11 11:08:55;;;;;;;9.95;6.65;;;;;;;16.81;100.00;100199.72;5121106;28;20048;-91
2023/05/11 11:11:49;;;;;;;8.10;7.10;;;;;;;16.49;100.00;100178.91;5117294;27;20055;-92
2023/05/11 11:15:07;;;;;;;7.10;6.18;;;;;;;16.42;100.00;100179.44;5123046;28;20039;-92
2023/05/11 11:17:45;;;;;;;10.18;7.32;;;;;;;16.43;100.00;100182.00;5124878;28;20052;-91
2023/05/11 11:20:47;;;;;;;12.50;7.43;;;;;;;16.19;100.00;100197.19;5118621;28;20073;-92
2023/05/11 11:23:48;;;;;;;9.10;7.75;;;;;;;16.24;100.00;100192.34;5120063;28;20044;-89
2023/05/11 11:26:57;;;;;;;11.10;8.80;;;;;;;16.55;100.00;100192.75;5118870;28;20457;-90
2023/05/11 11:29:40;;;;;;;9.30;7.68;;;;;;;16.88;100.00;100200.94;5119488;28;20051;-91
2023/05/11 11:32:22;;;;;;;10.00;8.32;;;;;;;17.11;100.00;100201.88;5107366;28;20056;-89
2023/05/11 11:34:54;;;;;;;10.70;8.95;;;;;;;17.18;100.00;100203.06;5111282;28;20070;-89
2023/05/11 11:38:01;;;;;;;9.10;6.72;;;;;;;16.64;100.00;100186.75;5096049;28;20040;-89
2023/05/11 11:41:14;;;;;;;10.45;7.18;;;;;;;16.42;100.00;100188.31;5103576;28;20063;-89
2023/05/11 11:44:20;;;;;;;13.10;7.68;;;;;;;16.65;100.00;100199.16;5113292;28;20109;-90
2023/05/11 11:53:57;;;;;;;8.40;7.50;;;;;;;16.77;100.00;100196.41;5066844;28;20073;-91
2023/05/11 11:56:38;;;;;;;8.13;7.25;;;;;;;16.77;100.00;100192.88;5019822;28;20097;-89
2023/05/11 11:59:24;;;;;;;10.45;7.75;;;;;;;16.60;100.00;100183.44;5025136;28;20042;-91
2023/05/11 12:05:54;;;;;;;;;;;;;;;16.51;100.00;100197.50;5027229;28;20033;-89
2023/05/11 12:16:13;;;;;;;;;;;;;;;15.34;100.00;100195.28;5006877;28;20121;-91
2023/05/11 12:19:27;;;;;;;12.25;9.63;;;;;;;15.14;100.00;100171.81;5011941;28;19920;-88
2023/05/11 12:33:50;;;;;;;11.30;9.15;;;;;;;15.98;100.00;100201.44;4950589;29;20107;-89
2023/05/11 12:36:43;;;;;;;12.75;8.43;;;;;;;15.96;100.00;100193.53;4950661;28;20069;-89
2023/05/11 12:39:35;;;;;;;12.50;8.80;;;;;;;15.63;100.00;100191.44;4988586;28;20411;-90
2023/05/11 12:42:30;;;;;;;11.23;9.73;;;;;;;15.22;100.00;100193.47;5007315;28;20093;-88
2023/05/11 12:48:53;;;;;;;9.73;8.73;;;;;;;15.08;100.00;100189.09;5008228;28;20056;-89
2023/05/11 12:51:44;;;;;;;11.20;8.93;;;;;;;15.17;100.00;100180.44;5007814;28;20380;-89
2023/05/11 12:54:25;;;;;;;10.10;8.40;;;;;;;15.19;100.00;100189.22;5000159;28;20050;-88
2023/05/11 12:56:54;;;;;;;10.73;8.95;;;;;;;15.06;100.00;100193.69;4999120;28;20078;-88
2023/05/11 12:59:40;;;;;;;11.07;9.18;;;;;;;14.86;100.00;100170.19;5034485;28;20042;-88
2023/05/11 13:02:29;;;;;;;11.68;9.02;;;;;;;15.00;100.00;100186.94;5021323;28;20109;-88
2023/05/11 13:04:58;;;;;;;11.52;9.27;;;;;;;14.93;100.00;100176.81;5021610;28;20101;-88
2023/05/11 13:07:29;;;;;;;10.25;8.48;;;;;;;14.82;100.00;100182.00;5016431;28;20117;-88